sensor_id;sensor_type;location;lat;lon;timestamp;P1;durP1;ratioP1;P2;durP2;ratioP2
55053;SDS011;40954;45.668;18.980;2023-05-10T00:01:15;7.20;;;6.40;;
55053;SDS011;40954;45.668;18.980;2023-05-10T00:03:41;7.95;;;6.35;;
55053;SDS011;40954;45.668;18.980;2023-05-10T00:06:07;9.40;;;7.20;;
55053;SDS011;40954;45.668;18.980;2023-05-10T00:08:33;7.95;;;7.15;;
55053;SDS011;40954;45.668;18.980;2023-05-10T00:10:59;9.73;;;6.80;;
55053;SDS011;40954;45.668;18.980;2023-05-10T00:13:25;9.07;;;7.57;;
55053;SDS011;40954;45.668;18.980;2023-05-10T00:15:51;8.98;;;7.47;;
55053;SDS011;40954;45.668;18.980;2023-05-10T00:18:18;8.23;;;7.40;;
55053;SDS011;40954;45.668;18.980;2023-05-10T00:20:44;8.63;;;7.43;;
55053;SDS011;40954;45.668;18.980;2023-05-10T00:23:11;8.75;;;7.40;;
55053;SDS011;40954;45.668;18.980;2023-05-10T00:25:37;8.30;;;7.40;;
55053;SDS011;40954;45.668;18.980;2023-05-10T00:28:03;10.88;;;7.78;;
55053;SDS011;40954;45.668;18.980;2023-05-10T00:30:29;14.10;;;10.20;;
55053;SDS011;40954;45.668;18.980;2023-05-10T00:32:55;9.98;;;8.02;;
55053;SDS011;40954;45.668;18.980;2023-05-10T00:35:21;11.80;;;8.85;;
55053;SDS011;40954;45.668;18.980;2023-05-10T00:37:47;10.48;;;7.80;;
55053;SDS011;40954;45.668;18.980;2023-05-10T00:40:13;8.38;;;7.57;;
55053;SDS011;40954;45.668;18.980;2023-05-10T00:42:40;11.65;;;8.00;;
55053;SDS011;40954;45.668;18.980;2023-05-10T00:45:06;9.73;;;7.68;;
55053;SDS011;40954;45.668;18.980;2023-05-10T00:47:32;10.43;;;7.53;;
55053;SDS011;40954;45.668;18.980;2023-05-10T00:49:58;7.95;;;7.13;;
55053;SDS011;40954;45.668;18.980;2023-05-10T00:52:25;8.55;;;6.70;;
55053;SDS011;40954;45.668;18.980;2023-05-10T00:54:52;11.05;;;8.55;;
55053;SDS011;40954;45.668;18.980;2023-05-10T00:57:18;8.43;;;7.57;;
55053;SDS011;40954;45.668;18.980;2023-05-10T00:59:44;12.80;;;8.15;;
55053;SDS011;40954;45.668;18.980;2023-05-10T01:02:10;8.85;;;7.93;;
55053;SDS011;40954;45.668;18.980;2023-05-10T01:04:36;8.98;;;7.40;;
55053;SDS011;40954;45.668;18.980;2023-05-10T01:07:03;9.73;;;8.20;;
55053;SDS011;40954;45.668;18.980;2023-05-10T01:09:29;8.10;;;7.30;;
55053;SDS011;40954;45.668;18.980;2023-05-10T01:11:55;8.30;;;7.50;;
55053;SDS011;40954;45.668;18.980;2023-05-10T01:14:22;10.05;;;7.47;;
55053;SDS011;40954;45.668;18.980;2023-05-10T01:16:48;7.68;;;6.88;;
55053;SDS011;40954;45.668;18.980;2023-05-10T01:19:24;9.82;;;7.68;;
55053;SDS011;40954;45.668;18.980;2023-05-10T01:30:01;10.43;;;7.80;;
55053;SDS011;40954;45.668;18.980;2023-05-10T01:32:48;8.15;;;7.35;;
55053;SDS011;40954;45.668;18.980;2023-05-10T01:37:42;8.65;;;7.78;;
55053;SDS011;40954;45.668;18.980;2023-05-10T01:40:14;10.63;;;7.78;;
55053;SDS011;40954;45.668;18.980;2023-05-10T01:42:51;11.80;;;8.15;;
55053;SDS011;40954;45.668;18.980;2023-05-10T01:45:28;9.38;;;7.68;;
55053;SDS011;40954;45.668;18.980;2023-05-10T01:48:17;9.57;;;8.63;;
55053;SDS011;40954;45.668;18.980;2023-05-10T01:50:43;8.93;;;7.47;;
55053;SDS011;40954;45.668;18.980;2023-05-10T01:53:11;9.27;;;8.38;;
55053;SDS011;40954;45.668;18.980;2023-05-10T01:55:47;11.77;;;9.38;;
55053;SDS011;40954;45.668;18.980;2023-05-10T01:58:18;10.18;;;8.68;;
55053;SDS011;40954;45.668;18.980;2023-05-10T02:00:46;8.00;;;7.20;;
55053;SDS011;40954;45.668;18.980;2023-05-10T02:03:13;10.00;;;7.82;;
55053;SDS011;40954;45.668;18.980;2023-05-10T02:05:40;9.32;;;8.30;;
55053;SDS011;40954;45.668;18.980;2023-05-10T02:08:07;9.70;;;7.50;;
55053;SDS011;40954;45.668;18.980;2023-05-10T02:10:34;13.88;;;8.60;;
55053;SDS011;40954;45.668;18.980;2023-05-10T02:13:00;8.80;;;7.90;;
55053;SDS011;40954;45.668;18.980;2023-05-10T02:15:27;9.68;;;8.20;;
55053;SDS011;40954;45.668;18.980;2023-05-10T02:17:54;9.27;;;8.27;;
55053;SDS011;40954;45.668;18.980;2023-05-10T02:20:21;9.05;;;8.10;;
55053;SDS011;40954;45.668;18.980;2023-05-10T02:22:48;10.18;;;9.15;;
55053;SDS011;40954;45.668;18.980;2023-05-10T02:25:15;11.07;;;8.50;;
55053;SDS011;40954;45.668;18.980;2023-05-10T02:27:41;9.30;;;8.32;;
55053;SDS011;40954;45.668;18.980;2023-05-10T02:30:07;11.43;;;9.10;;
55053;SDS011;40954;45.668;18.980;2023-05-10T02:32:34;10.55;;;9.13;;
55053;SDS011;40954;45.668;18.980;2023-05-10T02:35:01;11.35;;;8.60;;
55053;SDS011;40954;45.668;18.980;2023-05-10T02:37:27;11.65;;;9.77;;
55053;SDS011;40954;45.668;18.980;2023-05-10T02:39:54;11.20;;;9.52;;
55053;SDS011;40954;45.668;18.980;2023-05-10T02:42:25;10.05;;;8.20;;
55053;SDS011;40954;45.668;18.980;2023-05-10T02:44:53;10.03;;;8.37;;
55053;SDS011;40954;45.668;18.980;2023-05-10T02:47:19;12.52;;;9.20;;
55053;SDS011;40954;45.668;18.980;2023-05-10T02:49:45;11.20;;;9.80;;
55053;SDS011;40954;45.668;18.980;2023-05-10T02:52:11;10.88;;;9.68;;
55053;SDS011;40954;45.668;18.980;2023-05-10T02:54:45;12.05;;;10.07;;
55053;SDS011;40954;45.668;18.980;2023-05-10T02:57:15;10.93;;;9.73;;
55053;SDS011;40954;45.668;18.980;2023-05-10T02:59:43;11.43;;;10.15;;
55053;SDS011;40954;45.668;18.980;2023-05-10T03:02:10;11.10;;;9.80;;
55053;SDS011;40954;45.668;18.980;2023-05-10T03:04:38;14.13;;;10.20;;
55053;SDS011;40954;45.668;18.980;2023-05-10T03:07:04;12.63;;;10.27;;
55053;SDS011;40954;45.668;18.980;2023-05-10T03:09:30;17.60;;;12.05;;
55053;SDS011;40954;45.668;18.980;2023-05-10T03:14:43;12.02;;;10.15;;
55053;SDS011;40954;45.668;18.980;2023-05-10T03:20:03;13.63;;;11.75;;
55053;SDS011;40954;45.668;18.980;2023-05-10T03:22:37;12.82;;;11.43;;
55053;SDS011;40954;45.668;18.980;2023-05-10T03:25:04;14.30;;;12.50;;
55053;SDS011;40954;45.668;18.980;2023-05-10T03:27:32;14.60;;;12.00;;
55053;SDS011;40954;45.668;18.980;2023-05-10T03:29:58;16.80;;;13.20;;
55053;SDS011;40954;45.668;18.980;2023-05-10T03:32:24;14.80;;;12.77;;
55053;SDS011;40954;45.668;18.980;2023-05-10T03:34:52;14.70;;;12.48;;
55053;SDS011;40954;45.668;18.980;2023-05-10T03:37:18;17.63;;;13.32;;
55053;SDS011;40954;45.668;18.980;2023-05-10T03:39:44;14.23;;;12.68;;
55053;SDS011;40954;45.668;18.980;2023-05-10T03:42:10;14.02;;;12.43;;
55053;SDS011;40954;45.668;18.980;2023-05-10T03:44:37;13.25;;;11.60;;
55053;SDS011;40954;45.668;18.980;2023-05-10T03:47:03;14.10;;;11.05;;
55053;SDS011;40954;45.668;18.980;2023-05-10T03:49:29;13.45;;;11.75;;
55053;SDS011;40954;45.668;18.980;2023-05-10T03:51:55;13.00;;;11.60;;
55053;SDS011;40954;45.668;18.980;2023-05-10T03:54:21;14.00;;;12.10;;
55053;SDS011;40954;45.668;18.980;2023-05-10T03:56:48;13.45;;;12.07;;
55053;SDS011;40954;45.668;18.980;2023-05-10T03:59:14;12.25;;;11.05;;
55053;SDS011;40954;45.668;18.980;2023-05-10T04:01:40;12.52;;;11.20;;
55053;SDS011;40954;45.668;18.980;2023-05-10T04:04:06;11.88;;;10.48;;
55053;SDS011;40954;45.668;18.980;2023-05-10T04:06:32;11.15;;;10.05;;
55053;SDS011;40954;45.668;18.980;2023-05-10T04:08:58;13.18;;;10.32;;
55053;SDS011;40954;45.668;18.980;2023-05-10T04:11:28;15.18;;;11.13;;
55053;SDS011;40954;45.668;18.980;2023-05-10T04:13:54;11.30;;;10.10;;
55053;SDS011;40954;45.668;18.980;2023-05-10T04:16:20;11.63;;;9.25;;
55053;SDS011;40954;45.668;18.980;2023-05-10T04:18:46;13.45;;;9.93;;
55053;SDS011;40954;45.668;18.980;2023-05-10T04:21:13;11.23;;;10.07;;
55053;SDS011;40954;45.668;18.980;2023-05-10T04:23:39;11.02;;;9.93;;
55053;SDS011;40954;45.668;18.980;2023-05-10T04:26:05;13.18;;;10.05;;
55053;SDS011;40954;45.668;18.980;2023-05-10T04:28:31;13.32;;;10.38;;
55053;SDS011;40954;45.668;18.980;2023-05-10T04:31:04;11.40;;;10.20;;
55053;SDS011;40954;45.668;18.980;2023-05-10T04:33:30;8.90;;;7.40;;
55053;SDS011;40954;45.668;18.980;2023-05-10T04:35:56;11.13;;;10.02;;
55053;SDS011;40954;45.668;18.980;2023-05-10T04:38:23;13.15;;;7.63;;
55053;SDS011;40954;45.668;18.980;2023-05-10T04:40:49;10.65;;;8.73;;
55053;SDS011;40954;45.668;18.980;2023-05-10T04:43:15;10.35;;;9.35;;
55053;SDS011;40954;45.668;18.980;2023-05-10T04:45:41;7.75;;;7.05;;
55053;SDS011;40954;45.668;18.980;2023-05-10T04:48:07;8.23;;;7.07;;
55053;SDS011;40954;45.668;18.980;2023-05-10T04:50:33;10.55;;;8.85;;
55053;SDS011;40954;45.668;18.980;2023-05-10T04:52:59;12.20;;;9.57;;
55053;SDS011;40954;45.668;18.980;2023-05-10T04:55:25;13.38;;;9.75;;
55053;SDS011;40954;45.668;18.980;2023-05-10T04:57:52;74.82;;;47.45;;
55053;SDS011;40954;45.668;18.980;2023-05-10T05:00:21;63.30;;;44.22;;
55053;SDS011;40954;45.668;18.980;2023-05-10T05:02:47;84.78;;;56.67;;
55053;SDS011;40954;45.668;18.980;2023-05-10T05:05:14;78.82;;;53.40;;
55053;SDS011;40954;45.668;18.980;2023-05-10T05:07:40;72.25;;;49.25;;
55053;SDS011;40954;45.668;18.980;2023-05-10T05:10:06;26.02;;;21.77;;
55053;SDS011;40954;45.668;18.980;2023-05-10T05:12:32;26.90;;;21.08;;
55053;SDS011;40954;45.668;18.980;2023-05-10T05:14:58;15.57;;;13.10;;
55053;SDS011;40954;45.668;18.980;2023-05-10T05:17:25;25.63;;;17.20;;
55053;SDS011;40954;45.668;18.980;2023-05-10T05:19:51;45.53;;;32.75;;
55053;SDS011;40954;45.668;18.980;2023-05-10T05:22:17;33.42;;;25.30;;
55053;SDS011;40954;45.668;18.980;2023-05-10T05:24:44;40.80;;;30.33;;
55053;SDS011;40954;45.668;18.980;2023-05-10T05:27:10;37.72;;;25.10;;
55053;SDS011;40954;45.668;18.980;2023-05-10T05:29:36;34.53;;;23.63;;
55053;SDS011;40954;45.668;18.980;2023-05-10T05:32:02;31.83;;;21.30;;
55053;SDS011;40954;45.668;18.980;2023-05-10T05:34:28;14.48;;;12.02;;
55053;SDS011;40954;45.668;18.980;2023-05-10T05:36:54;11.15;;;8.18;;
55053;SDS011;40954;45.668;18.980;2023-05-10T05:39:21;8.52;;;7.63;;
55053;SDS011;40954;45.668;18.980;2023-05-10T05:41:47;10.68;;;7.95;;
55053;SDS011;40954;45.668;18.980;2023-05-10T05:44:13;13.05;;;11.27;;
55053;SDS011;40954;45.668;18.980;2023-05-10T05:46:39;8.25;;;7.32;;
55053;SDS011;40954;45.668;18.980;2023-05-10T05:49:05;10.85;;;9.75;;
55053;SDS011;40954;45.668;18.980;2023-05-10T05:51:31;13.45;;;10.63;;
55053;SDS011;40954;45.668;18.980;2023-05-10T05:53:57;8.05;;;7.25;;
55053;SDS011;40954;45.668;18.980;2023-05-10T05:56:24;11.10;;;7.70;;
55053;SDS011;40954;45.668;18.980;2023-05-10T05:58:50;9.15;;;8.23;;
55053;SDS011;40954;45.668;18.980;2023-05-10T06:01:16;10.32;;;8.68;;
55053;SDS011;40954;45.668;18.980;2023-05-10T06:03:42;7.75;;;7.05;;
55053;SDS011;40954;45.668;18.980;2023-05-10T06:06:08;9.80;;;8.80;;
55053;SDS011;40954;45.668;18.980;2023-05-10T06:08:34;10.10;;;7.93;;
55053;SDS011;40954;45.668;18.980;2023-05-10T06:11:00;10.98;;;9.38;;
55053;SDS011;40954;45.668;18.980;2023-05-10T06:13:27;10.15;;;8.18;;
55053;SDS011;40954;45.668;18.980;2023-05-10T06:16:00;10.60;;;8.43;;
55053;SDS011;40954;45.668;18.980;2023-05-10T06:18:27;8.88;;;7.97;;
55053;SDS011;40954;45.668;18.980;2023-05-10T06:20:53;8.70;;;7.80;;
55053;SDS011;40954;45.668;18.980;2023-05-10T06:23:19;11.68;;;7.20;;
55053;SDS011;40954;45.668;18.980;2023-05-10T06:25:45;8.30;;;7.40;;
55053;SDS011;40954;45.668;18.980;2023-05-10T06:28:11;8.27;;;7.47;;
55053;SDS011;40954;45.668;18.980;2023-05-10T06:30:37;13.27;;;8.13;;
55053;SDS011;40954;45.668;18.980;2023-05-10T06:33:03;7.88;;;7.05;;
55053;SDS011;40954;45.668;18.980;2023-05-10T06:35:29;10.68;;;7.32;;
55053;SDS011;40954;45.668;18.980;2023-05-10T06:37:58;8.55;;;7.05;;
55053;SDS011;40954;45.668;18.980;2023-05-10T06:40:24;8.02;;;6.85;;
55053;SDS011;40954;45.668;18.980;2023-05-10T06:42:51;9.68;;;7.10;;
55053;SDS011;40954;45.668;18.980;2023-05-10T06:45:17;10.02;;;6.78;;
55053;SDS011;40954;45.668;18.980;2023-05-10T06:47:43;10.27;;;7.47;;
55053;SDS011;40954;45.668;18.980;2023-05-10T06:50:09;9.85;;;6.88;;
55053;SDS011;40954;45.668;18.980;2023-05-10T06:52:36;7.38;;;6.68;;
55053;SDS011;40954;45.668;18.980;2023-05-10T06:55:05;7.05;;;6.35;;
55053;SDS011;40954;45.668;18.980;2023-05-10T06:57:31;6.97;;;6.28;;
55053;SDS011;40954;45.668;18.980;2023-05-10T07:00:01;7.05;;;6.40;;
55053;SDS011;40954;45.668;18.980;2023-05-10T07:02:29;7.15;;;6.50;;
55053;SDS011;40954;45.668;18.980;2023-05-10T07:04:55;9.25;;;6.60;;
55053;SDS011;40954;45.668;18.980;2023-05-10T07:07:21;6.72;;;6.03;;
55053;SDS011;40954;45.668;18.980;2023-05-10T07:09:47;6.63;;;5.97;;
55053;SDS011;40954;45.668;18.980;2023-05-10T07:12:14;7.63;;;6.30;;
55053;SDS011;40954;45.668;18.980;2023-05-10T07:14:41;6.78;;;5.90;;
55053;SDS011;40954;45.668;18.980;2023-05-10T07:17:07;7.18;;;5.45;;
55053;SDS011;40954;45.668;18.980;2023-05-10T07:19:33;6.20;;;5.63;;
55053;SDS011;40954;45.668;18.980;2023-05-10T07:21:59;8.13;;;5.80;;
55053;SDS011;40954;45.668;18.980;2023-05-10T07:24:25;6.03;;;5.28;;
55053;SDS011;40954;45.668;18.980;2023-05-10T07:26:51;6.68;;;4.90;;
55053;SDS011;40954;45.668;18.980;2023-05-10T07:29:17;6.40;;;5.80;;
55053;SDS011;40954;45.668;18.980;2023-05-10T07:31:43;6.70;;;5.60;;
55053;SDS011;40954;45.668;18.980;2023-05-10T07:34:09;6.57;;;5.80;;
55053;SDS011;40954;45.668;18.980;2023-05-10T07:36:35;7.38;;;5.20;;
55053;SDS011;40954;45.668;18.980;2023-05-10T07:39:01;6.00;;;5.40;;
55053;SDS011;40954;45.668;18.980;2023-05-10T07:41:27;7.18;;;4.93;;
55053;SDS011;40954;45.668;18.980;2023-05-10T07:43:54;6.20;;;4.78;;
55053;SDS011;40954;45.668;18.980;2023-05-10T07:46:20;5.65;;;5.15;;
55053;SDS011;40954;45.668;18.980;2023-05-10T07:48:46;8.15;;;5.20;;
55053;SDS011;40954;45.668;18.980;2023-05-10T07:51:12;6.65;;;5.20;;
55053;SDS011;40954;45.668;18.980;2023-05-10T07:53:38;6.88;;;4.70;;
55053;SDS011;40954;45.668;18.980;2023-05-10T07:56:21;5.18;;;4.68;;
55053;SDS011;40954;45.668;18.980;2023-05-10T07:58:47;5.13;;;4.63;;
55053;SDS011;40954;45.668;18.980;2023-05-10T08:01:13;8.38;;;6.13;;
55053;SDS011;40954;45.668;18.980;2023-05-10T08:03:39;9.35;;;4.82;;
55053;SDS011;40954;45.668;18.980;2023-05-10T08:06:05;12.60;;;4.60;;
55053;SDS011;40954;45.668;18.980;2023-05-10T08:08:31;11.40;;;4.10;;
55053;SDS011;40954;45.668;18.980;2023-05-10T08:10:57;5.55;;;4.15;;
55053;SDS011;40954;45.668;18.980;2023-05-10T08:13:23;7.65;;;4.63;;
55053;SDS011;40954;45.668;18.980;2023-05-10T08:15:49;5.25;;;4.70;;
55053;SDS011;40954;45.668;18.980;2023-05-10T08:18:18;7.95;;;4.63;;
55053;SDS011;40954;45.668;18.980;2023-05-10T08:20:44;5.93;;;4.80;;
55053;SDS011;40954;45.668;18.980;2023-05-10T08:23:11;9.70;;;4.57;;
55053;SDS011;40954;45.668;18.980;2023-05-10T08:25:38;5.30;;;3.78;;
55053;SDS011;40954;45.668;18.980;2023-05-10T08:28:04;6.25;;;4.45;;
55053;SDS011;40954;45.668;18.980;2023-05-10T08:30:30;7.00;;;4.40;;
55053;SDS011;40954;45.668;18.980;2023-05-10T08:32:56;4.88;;;4.47;;
55053;SDS011;40954;45.668;18.980;2023-05-10T08:35:22;5.03;;;4.00;;
55053;SDS011;40954;45.668;18.980;2023-05-10T08:37:49;9.77;;;4.15;;
55053;SDS011;40954;45.668;18.980;2023-05-10T08:40:15;5.75;;;4.45;;
55053;SDS011;40954;45.668;18.980;2023-05-10T08:42:43;7.88;;;4.15;;
55053;SDS011;40954;45.668;18.980;2023-05-10T08:45:11;9.07;;;5.10;;
55053;SDS011;40954;45.668;18.980;2023-05-10T08:47:37;5.82;;;4.30;;
55053;SDS011;40954;45.668;18.980;2023-05-10T08:50:04;7.20;;;4.20;;
55053;SDS011;40954;45.668;18.980;2023-05-10T08:52:32;10.52;;;5.53;;
55053;SDS011;40954;45.668;18.980;2023-05-10T08:54:58;4.60;;;4.18;;
55053;SDS011;40954;45.668;18.980;2023-05-10T08:57:24;4.45;;;3.72;;
55053;SDS011;40954;45.668;18.980;2023-05-10T08:59:50;6.07;;;4.07;;
55053;SDS011;40954;45.668;18.980;2023-05-10T09:02:16;4.57;;;3.40;;
55053;SDS011;40954;45.668;18.980;2023-05-10T09:04:44;9.50;;;3.38;;
55053;SDS011;40954;45.668;18.980;2023-05-10T09:07:10;5.35;;;3.20;;
55053;SDS011;40954;45.668;18.980;2023-05-10T09:09:36;4.88;;;3.30;;
55053;SDS011;40954;45.668;18.980;2023-05-10T09:12:02;3.90;;;3.35;;
55053;SDS011;40954;45.668;18.980;2023-05-10T09:14:29;5.03;;;3.42;;
55053;SDS011;40954;45.668;18.980;2023-05-10T09:16:56;3.88;;;3.58;;
55053;SDS011;40954;45.668;18.980;2023-05-10T09:19:22;9.68;;;4.38;;
55053;SDS011;40954;45.668;18.980;2023-05-10T09:21:48;4.68;;;4.10;;
55053;SDS011;40954;45.668;18.980;2023-05-10T09:24:15;3.67;;;3.38;;
55053;SDS011;40954;45.668;18.980;2023-05-10T09:26:47;11.27;;;4.63;;
55053;SDS011;40954;45.668;18.980;2023-05-10T09:29:13;8.88;;;3.85;;
55053;SDS011;40954;45.668;18.980;2023-05-10T09:31:47;6.15;;;4.15;;
55053;SDS011;40954;45.668;18.980;2023-05-10T09:34:18;10.25;;;3.15;;
55053;SDS011;40954;45.668;18.980;2023-05-10T09:36:52;12.88;;;4.82;;
55053;SDS011;40954;45.668;18.980;2023-05-10T09:39:18;5.05;;;3.70;;
55053;SDS011;40954;45.668;18.980;2023-05-10T09:41:44;12.00;;;4.35;;
55053;SDS011;40954;45.668;18.980;2023-05-10T09:44:10;6.47;;;3.80;;
55053;SDS011;40954;45.668;18.980;2023-05-10T09:46:37;4.72;;;3.30;;
55053;SDS011;40954;45.668;18.980;2023-05-10T09:49:03;6.93;;;3.25;;
55053;SDS011;40954;45.668;18.980;2023-05-10T09:51:31;4.80;;;3.72;;
55053;SDS011;40954;45.668;18.980;2023-05-10T09:56:56;7.50;;;3.10;;
55053;SDS011;40954;45.668;18.980;2023-05-10T09:59:23;9.63;;;3.63;;
55053;SDS011;40954;45.668;18.980;2023-05-10T10:01:51;4.05;;;3.30;;
55053;SDS011;40954;45.668;18.980;2023-05-10T10:04:17;7.45;;;3.38;;
55053;SDS011;40954;45.668;18.980;2023-05-10T10:06:43;4.13;;;3.17;;
55053;SDS011;40954;45.668;18.980;2023-05-10T10:09:09;3.20;;;2.90;;
55053;SDS011;40954;45.668;18.980;2023-05-10T10:11:36;5.88;;;3.03;;
55053;SDS011;40954;45.668;18.980;2023-05-10T10:14:02;2.92;;;2.72;;
55053;SDS011;40954;45.668;18.980;2023-05-10T10:16:28;3.38;;;2.85;;
55053;SDS011;40954;45.668;18.980;2023-05-10T10:18:55;4.28;;;2.95;;
55053;SDS011;40954;45.668;18.980;2023-05-10T10:21:21;4.47;;;3.25;;
55053;SDS011;40954;45.668;18.980;2023-05-10T10:23:47;3.03;;;2.75;;
55053;SDS011;40954;45.668;18.980;2023-05-10T10:26:14;4.53;;;3.10;;
55053;SDS011;40954;45.668;18.980;2023-05-10T10:28:51;5.85;;;2.78;;
55053;SDS011;40954;45.668;18.980;2023-05-10T10:31:26;6.35;;;3.00;;
55053;SDS011;40954;45.668;18.980;2023-05-10T10:34:00;7.72;;;2.97;;
55053;SDS011;40954;45.668;18.980;2023-05-10T10:36:27;3.85;;;2.53;;
55053;SDS011;40954;45.668;18.980;2023-05-10T10:41:29;6.90;;;3.30;;
55053;SDS011;40954;45.668;18.980;2023-05-10T10:49:25;4.40;;;3.13;;
55053;SDS011;40954;45.668;18.980;2023-05-10T10:54:36;6.03;;;3.30;;
55053;SDS011;40954;45.668;18.980;2023-05-10T10:57:11;4.50;;;3.20;;
55053;SDS011;40954;45.668;18.980;2023-05-10T10:59:47;4.40;;;3.00;;
55053;SDS011;40954;45.668;18.980;2023-05-10T11:02:32;5.53;;;3.13;;
55053;SDS011;40954;45.668;18.980;2023-05-10T11:04:59;5.40;;;3.15;;
55053;SDS011;40954;45.668;18.980;2023-05-10T11:07:25;5.00;;;3.10;;
55053;SDS011;40954;45.668;18.980;2023-05-10T11:09:52;2.97;;;2.70;;
55053;SDS011;40954;45.668;18.980;2023-05-10T11:12:18;2.75;;;2.55;;
55053;SDS011;40954;45.668;18.980;2023-05-10T11:14:49;7.65;;;3.55;;
55053;SDS011;40954;45.668;18.980;2023-05-10T11:17:22;7.43;;;3.30;;
55053;SDS011;40954;45.668;18.980;2023-05-10T11:25:28;6.35;;;3.00;;
55053;SDS011;40954;45.668;18.980;2023-05-10T11:27:54;4.05;;;2.78;;
55053;SDS011;40954;45.668;18.980;2023-05-10T11:30:21;6.32;;;2.55;;
55053;SDS011;40954;45.668;18.980;2023-05-10T11:32:47;3.08;;;2.47;;
55053;SDS011;40954;45.668;18.980;2023-05-10T11:35:13;8.15;;;3.00;;
55053;SDS011;40954;45.668;18.980;2023-05-10T11:37:40;4.32;;;2.33;;
55053;SDS011;40954;45.668;18.980;2023-05-10T11:40:08;2.45;;;2.25;;
55053;SDS011;40954;45.668;18.980;2023-05-10T11:42:37;3.83;;;3.00;;
55053;SDS011;40954;45.668;18.980;2023-05-10T11:45:04;2.47;;;2.28;;
55053;SDS011;40954;45.668;18.980;2023-05-10T11:47:30;2.60;;;2.33;;
55053;SDS011;40954;45.668;18.980;2023-05-10T11:49:56;2.60;;;2.40;;
55053;SDS011;40954;45.668;18.980;2023-05-10T11:52:22;8.10;;;2.35;;
55053;SDS011;40954;45.668;18.980;2023-05-10T11:54:52;3.90;;;2.15;;
55053;SDS011;40954;45.668;18.980;2023-05-10T11:57:18;5.60;;;2.70;;
55053;SDS011;40954;45.668;18.980;2023-05-10T11:59:47;2.97;;;2.60;;
55053;SDS011;40954;45.668;18.980;2023-05-10T12:02:19;5.22;;;2.58;;
55053;SDS011;40954;45.668;18.980;2023-05-10T12:04:45;4.20;;;2.28;;
55053;SDS011;40954;45.668;18.980;2023-05-10T12:07:12;2.60;;;2.40;;
55053;SDS011;40954;45.668;18.980;2023-05-10T12:09:42;2.28;;;2.17;;
55053;SDS011;40954;45.668;18.980;2023-05-10T12:12:08;4.05;;;2.28;;
55053;SDS011;40954;45.668;18.980;2023-05-10T12:14:35;5.18;;;2.25;;
55053;SDS011;40954;45.668;18.980;2023-05-10T12:17:01;2.25;;;2.08;;
55053;SDS011;40954;45.668;18.980;2023-05-10T12:19:27;3.85;;;1.77;;
55053;SDS011;40954;45.668;18.980;2023-05-10T12:21:53;2.10;;;2.00;;
55053;SDS011;40954;45.668;18.980;2023-05-10T12:24:19;7.47;;;2.63;;
55053;SDS011;40954;45.668;18.980;2023-05-10T12:26:46;6.13;;;2.45;;
55053;SDS011;40954;45.668;18.980;2023-05-10T12:29:14;2.50;;;2.30;;
55053;SDS011;40954;45.668;18.980;2023-05-10T12:31:53;9.68;;;3.17;;
55053;SDS011;40954;45.668;18.980;2023-05-10T12:34:26;3.65;;;2.38;;
55053;SDS011;40954;45.668;18.980;2023-05-10T12:36:52;8.63;;;3.08;;
55053;SDS011;40954;45.668;18.980;2023-05-10T12:39:19;2.22;;;1.90;;
55053;SDS011;40954;45.668;18.980;2023-05-10T12:41:45;3.67;;;2.70;;
55053;SDS011;40954;45.668;18.980;2023-05-10T12:44:11;3.45;;;2.60;;
55053;SDS011;40954;45.668;18.980;2023-05-10T12:46:37;2.60;;;2.40;;
55053;SDS011;40954;45.668;18.980;2023-05-10T12:49:03;5.15;;;2.45;;
55053;SDS011;40954;45.668;18.980;2023-05-10T12:51:29;5.10;;;2.58;;
55053;SDS011;40954;45.668;18.980;2023-05-10T12:53:56;4.47;;;2.05;;
55053;SDS011;40954;45.668;18.980;2023-05-10T12:56:22;5.18;;;2.10;;
55053;SDS011;40954;45.668;18.980;2023-05-10T12:58:48;2.67;;;2.22;;
55053;SDS011;40954;45.668;18.980;2023-05-10T13:01:14;7.47;;;2.35;;
55053;SDS011;40954;45.668;18.980;2023-05-10T13:03:40;4.22;;;2.40;;
55053;SDS011;40954;45.668;18.980;2023-05-10T13:06:08;4.18;;;2.13;;
55053;SDS011;40954;45.668;18.980;2023-05-10T13:08:34;4.35;;;2.33;;
55053;SDS011;40954;45.668;18.980;2023-05-10T13:11:00;2.05;;;1.95;;
55053;SDS011;40954;45.668;18.980;2023-05-10T13:13:26;9.65;;;2.65;;
55053;SDS011;40954;45.668;18.980;2023-05-10T13:15:52;3.05;;;2.10;;
55053;SDS011;40954;45.668;18.980;2023-05-10T13:20:45;5.00;;;2.25;;
55053;SDS011;40954;45.668;18.980;2023-05-10T13:23:11;2.70;;;2.42;;
55053;SDS011;40954;45.668;18.980;2023-05-10T13:25:37;2.60;;;2.40;;
55053;SDS011;40954;45.668;18.980;2023-05-10T13:28:04;2.70;;;2.30;;
55053;SDS011;40954;45.668;18.980;2023-05-10T13:30:30;6.47;;;2.17;;
55053;SDS011;40954;45.668;18.980;2023-05-10T13:32:56;2.63;;;2.13;;
55053;SDS011;40954;45.668;18.980;2023-05-10T13:35:22;4.78;;;2.00;;
55053;SDS011;40954;45.668;18.980;2023-05-10T13:37:48;2.80;;;2.50;;
55053;SDS011;40954;45.668;18.980;2023-05-10T13:40:14;2.80;;;2.20;;
55053;SDS011;40954;45.668;18.980;2023-05-10T13:42:40;2.28;;;2.08;;
55053;SDS011;40954;45.668;18.980;2023-05-10T13:45:06;2.58;;;2.20;;
55053;SDS011;40954;45.668;18.980;2023-05-10T13:47:33;3.17;;;2.70;;
55053;SDS011;40954;45.668;18.980;2023-05-10T13:49:59;8.23;;;2.08;;
55053;SDS011;40954;45.668;18.980;2023-05-10T13:52:26;2.17;;;2.03;;
55053;SDS011;40954;45.668;18.980;2023-05-10T13:54:52;2.65;;;2.45;;
55053;SDS011;40954;45.668;18.980;2023-05-10T13:57:20;4.45;;;2.13;;
55053;SDS011;40954;45.668;18.980;2023-05-10T13:59:46;3.15;;;2.20;;
55053;SDS011;40954;45.668;18.980;2023-05-10T14:02:13;4.30;;;2.17;;
55053;SDS011;40954;45.668;18.980;2023-05-10T14:04:39;2.65;;;2.42;;
55053;SDS011;40954;45.668;18.980;2023-05-10T14:07:05;3.95;;;2.28;;
55053;SDS011;40954;45.668;18.980;2023-05-10T14:09:31;6.13;;;2.17;;
55053;SDS011;40954;45.668;18.980;2023-05-10T14:11:57;9.27;;;2.60;;
55053;SDS011;40954;45.668;18.980;2023-05-10T14:14:23;2.70;;;2.25;;
55053;SDS011;40954;45.668;18.980;2023-05-10T14:16:50;4.93;;;2.22;;
55053;SDS011;40954;45.668;18.980;2023-05-10T14:19:16;2.78;;;2.33;;
55053;SDS011;40954;45.668;18.980;2023-05-10T14:21:42;4.03;;;2.05;;
55053;SDS011;40954;45.668;18.980;2023-05-10T14:24:08;2.75;;;2.17;;
55053;SDS011;40954;45.668;18.980;2023-05-10T14:26:35;5.22;;;2.42;;
55053;SDS011;40954;45.668;18.980;2023-05-10T14:29:01;4.90;;;1.98;;
55053;SDS011;40954;45.668;18.980;2023-05-10T14:31:27;2.92;;;2.20;;
55053;SDS011;40954;45.668;18.980;2023-05-10T14:33:55;1.98;;;1.88;;
55053;SDS011;40954;45.668;18.980;2023-05-10T14:36:22;4.68;;;2.22;;
55053;SDS011;40954;45.668;18.980;2023-05-10T14:38:48;5.00;;;1.83;;
55053;SDS011;40954;45.668;18.980;2023-05-10T14:41:15;4.32;;;2.05;;
55053;SDS011;40954;45.668;18.980;2023-05-10T14:43:42;6.30;;;2.30;;
55053;SDS011;40954;45.668;18.980;2023-05-10T14:46:08;4.05;;;2.03;;
55053;SDS011;40954;45.668;18.980;2023-05-10T14:48:34;3.95;;;2.70;;
55053;SDS011;40954;45.668;18.980;2023-05-10T14:51:01;3.33;;;2.42;;
55053;SDS011;40954;45.668;18.980;2023-05-10T14:53:28;3.80;;;2.00;;
55053;SDS011;40954;45.668;18.980;2023-05-10T14:55:54;4.43;;;1.90;;
55053;SDS011;40954;45.668;18.980;2023-05-10T14:58:20;5.07;;;2.05;;
55053;SDS011;40954;45.668;18.980;2023-05-10T15:00:46;6.25;;;2.42;;
55053;SDS011;40954;45.668;18.980;2023-05-10T15:03:12;4.50;;;2.22;;
55053;SDS011;40954;45.668;18.980;2023-05-10T15:05:38;2.13;;;2.00;;